Time;durP1;ratioP1;P1;durP2;ratioP2;P2;SDS_P1;SDS_P2;PMS_P1;PMS_P2;Temp;Humidity;BMP_temperature;BMP_pressure;BME280_temperature;BME280_humidity;BME280_pressure;Samples;Min_cycle;Max_cycle;Signal;HPM_P1;HPM_P2
2023/08/05 06:23:39;;;;;;;2.63;1.90;;;22.50;99.90;;;;;;5061523;27;20988;-80
2023/08/05 06:26:07;;;;;;;3.33;1.90;;;22.90;99.90;;;;;;5049523;28;20047;-80
2023/08/05 06:28:34;;;;;;;3.58;1.98;;;23.00;99.90;;;;;;5081022;28;20487;-80
2023/08/05 06:31:01;;;;;;;7.90;2.55;;;23.10;99.90;;;;;;5053047;28;20048;-80
2023/08/05 06:33:29;;;;;;;2.80;1.90;;;23.10;99.90;;;;;;5060580;28;20075;-79
2023/08/05 06:35:56;;;;;;;3.20;2.10;;;23.10;99.90;;;;;;5024538;28;20147;-79
2023/08/05 06:38:24;;;;;;;2.28;1.77;;;23.10;99.90;;;;;;5054918;28;22820;-78
2023/08/05 06:40:52;;;;;;;3.22;1.77;;;23.10;99.90;;;;;;5033045;28;20052;-78
2023/08/05 06:43:19;;;;;;;4.30;1.98;;;23.20;99.90;;;;;;5045464;28;21012;-79
2023/08/05 06:45:47;;;;;;;2.88;2.00;;;23.30;99.90;;;;;;5044727;28;20424;-79
2023/08/05 06:48:14;;;;;;;3.05;2.50;;;23.40;99.90;;;;;;5033778;28;20041;-80
2023/08/05 06:50:42;;;;;;;3.83;2.55;;;23.40;99.90;;;;;;5016450;28;20065;-80
2023/08/05 06:53:09;;;;;;;4.10;2.38;;;23.60;99.90;;;;;;5016698;28;20353;-80
2023/08/05 06:55:36;;;;;;;4.55;2.28;;;23.80;99.90;;;;;;5036273;28;20491;-81
2023/08/05 06:58:03;;;;;;;4.07;2.20;;;24.10;99.90;;;;;;5018701;28;20563;-77
2023/08/05 07:00:30;;;;;;;4.72;3.58;;;24.20;99.90;;;;;;5020445;28;20557;-79
2023/08/05 07:02:58;;;;;;;3.88;2.78;;;24.10;99.90;;;;;;5010717;28;20040;-80
2023/08/05 07:05:25;;;;;;;4.97;3.33;;;24.20;99.90;;;;;;5036528;28;20049;-79
2023/08/05 07:07:52;;;;;;;4.78;3.30;;;24.40;99.90;;;;;;5035351;28;20227;-77
2023/08/05 07:10:23;;;;;;;6.22;3.63;;;24.50;99.90;;;;;;5021647;28;20178;-80
2023/08/05 07:12:50;;;;;;;5.55;3.75;;;24.30;99.90;;;;;;5026275;28;20115;-79
2023/08/05 07:15:17;;;;;;;7.03;3.67;;;24.10;99.90;;;;;;5036001;28;20055;-80
2023/08/05 07:17:44;;;;;;;4.32;3.42;;;24.20;99.90;;;;;;5017502;28;20541;-77
2023/08/05 07:20:11;;;;;;;5.18;3.28;;;24.40;99.90;;;;;;5035877;28;20123;-78
2023/08/05 07:22:38;;;;;;;4.22;3.30;;;24.40;99.90;;;;;;5050451;28;20552;-79
2023/08/05 07:25:07;;;;;;;5.38;3.60;;;24.60;99.90;;;;;;5028547;28;20426;-78
2023/08/05 07:27:34;;;;;;;4.82;4.13;;;24.70;99.90;;;;;;5022744;28;20053;-79
2023/08/05 07:30:01;;;;;;;5.25;3.97;;;24.60;99.90;;;;;;5016088;28;20045;-77
2023/08/05 07:32:30;;;;;;;5.38;3.28;;;24.60;99.90;;;;;;5049685;28;20036;-78
2023/08/05 07:34:57;;;;;;;6.60;4.55;;;25.00;99.90;;;;;;5016387;28;20067;-79
2023/08/05 07:37:24;;;;;;;8.18;5.28;;;25.10;99.90;;;;;;5032935;28;20044;-77
2023/08/05 07:39:52;;;;;;;8.38;4.28;;;25.30;99.90;;;;;;5041243;28;20044;-79
2023/08/05 07:42:22;;;;;;;6.97;4.32;;;25.10;99.90;;;;;;5035990;28;20140;-79
2023/08/05 07:44:52;;;;;;;6.40;4.53;;;24.90;99.90;;;;;;5029815;28;20048;-79
2023/08/05 07:47:19;;;;;;;6.05;4.18;;;24.90;99.90;;;;;;5031182;28;20537;-80
2023/08/05 07:49:48;;;;;;;5.93;4.80;;;25.10;99.90;;;;;;5028822;28;20527;-79
2023/08/05 08:01:46;;;;;;;;;;;;;;;;;;;;;
2023/08/05 08:12:46;;;;;;;7.55;5.05;;;24.60;99.90;;;;;;4876774;29;20051;-77
2023/08/05 08:15:11;;;;;;;7.80;5.15;;;24.60;99.90;;;;;;4884417;29;20039;-77
2023/08/05 08:17:39;;;;;;;7.57;5.32;;;24.60;99.90;;;;;;4912376;28;20498;-78
2023/08/05 08:21:05;;;;;;;7.88;5.25;;;24.70;99.90;;;;;;4969449;28;20045;-79
2023/08/05 08:24:54;;;;;;;10.07;6.30;;;24.80;99.90;;;;;;4935653;28;20044;-79
2023/08/05 08:27:35;;;;;;;8.48;6.70;;;24.80;99.90;;;;;;5020623;28;20419;-79
2023/08/05 08:30:12;;;;;;;8.50;6.38;;;24.80;99.90;;;;;;4979913;28;20085;-76
2023/08/05 08:32:39;;;;;;;9.75;6.20;;;24.80;99.90;;;;;;4999258;28;20053;-77
2023/08/05 08:35:06;;;;;;;9.70;7.43;;;24.80;99.90;;;;;;4997723;28;20152;-76
2023/08/05 08:37:33;;;;;;;9.27;6.35;;;24.70;99.90;;;;;;5011029;28;20061;-76
2023/08/05 08:40:02;;;;;;;10.75;7.00;;;24.70;99.90;;;;;;5014704;28;20430;-78
2023/08/05 08:42:49;;;;;;;9.75;6.78;;;24.60;99.90;;;;;;5017458;28;20049;-76
2023/08/05 08:45:19;;;;;;;8.90;7.22;;;24.60;99.90;;;;;;4995166;28;20152;-77
2023/08/05 08:47:49;;;;;;;9.27;7.80;;;24.60;99.90;;;;;;5014681;28;20041;-77
2023/08/05 08:50:17;;;;;;;9.20;7.50;;;24.60;99.90;;;;;;5021956;28;20057;-76
2023/08/05 08:52:47;;;;;;;10.95;8.13;;;24.70;99.90;;;;;;4995474;28;20081;-77
2023/08/05 08:55:15;;;;;;;10.43;8.43;;;24.70;99.90;;;;;;5014024;28;20059;-77
2023/08/05 08:57:42;;;;;;;11.32;8.30;;;24.60;99.90;;;;;;5012458;28;20063;-77
2023/08/05 09:00:10;;;;;;;10.45;7.78;;;24.50;99.90;;;;;;5012778;28;20061;-76
2023/08/05 09:02:38;;;;;;;11.93;8.10;;;24.50;99.90;;;;;;5005545;28;20426;-77
2023/08/05 09:05:07;;;;;;;13.40;9.68;;;24.50;99.90;;;;;;5004838;28;20049;-78
2023/08/05 09:07:35;;;;;;;11.10;7.95;;;24.50;99.90;;;;;;4997743;28;20144;-78
2023/08/05 09:10:04;;;;;;;12.75;9.10;;;24.50;99.90;;;;;;5027842;28;20565;-78
2023/08/05 09:12:33;;;;;;;11.05;9.43;;;24.50;99.90;;;;;;5035759;28;20067;-78
2023/08/05 09:15:00;;;;;;;11.38;9.00;;;24.60;99.90;;;;;;5026008;28;20879;-80
2023/08/05 09:17:37;;;;;;;11.38;8.82;;;24.60;99.90;;;;;;5010644;28;20053;-78
2023/08/05 09:20:31;;;;;;;13.65;9.48;;;24.70;99.90;;;;;;5040612;28;20048;-77
2023/08/05 09:23:01;;;;;;;13.20;8.93;;;24.70;99.90;;;;;;5004097;28;20048;-77
2023/08/05 09:25:30;;;;;;;12.10;9.32;;;24.70;99.90;;;;;;5007997;28;20045;-75
2023/08/05 09:28:00;;;;;;;14.98;10.82;;;24.80;99.90;;;;;;5039285;28;20546;-77
2023/08/05 09:30:27;;;;;;;12.25;9.82;;;24.80;99.90;;;;;;5041242;28;20053;-76
2023/08/05 09:32:54;;;;;;;12.32;9.68;;;24.80;99.90;;;;;;5023941;28;20091;-77
2023/08/05 09:35:24;;;;;;;13.07;11.10;;;24.70;99.90;;;;;;5049602;28;20053;-77
2023/08/05 09:37:52;;;;;;;12.43;10.32;;;24.70;99.90;;;;;;5062714;27;20650;-76
2023/08/05 09:40:22;;;;;;;13.05;10.90;;;24.70;99.90;;;;;;5085393;27;20701;-77
2023/08/05 09:42:50;;;;;;;13.40;10.38;;;24.80;99.90;;;;;;5074092;27;20108;-77
2023/08/05 09:45:19;;;;;;;11.88;10.07;;;25.00;99.90;;;;;;5103506;27;20039;-78
2023/08/05 09:47:47;;;;;;;14.75;11.18;;;25.30;99.90;;;;;;5061941;27;20043;-76
2023/08/05 09:50:16;;;;;;;12.77;11.25;;;25.30;99.90;;;;;;5078146;27;20111;-77
2023/08/05 09:52:44;;;;;;;14.80;11.50;;;25.40;99.90;;;;;;5061758;27;20133;-78
2023/08/05 09:55:15;;;;;;;16.15;12.80;;;25.40;99.90;;;;;;5089297;27;20497;-77
2023/08/05 09:57:43;;;;;;;14.47;11.83;;;25.40;99.90;;;;;;5085119;27;20121;-78
2023/08/05 10:00:13;;;;;;;17.20;12.68;;;25.50;99.90;;;;;;5091147;27;20401;-78
2023/08/05 10:02:42;;;;;;;16.65;13.65;;;25.60;99.90;;;;;;5078312;27;20132;-78
2023/08/05 10:05:11;;;;;;;18.35;14.73;;;25.60;99.90;;;;;;5073089;27;20051;-77
2023/08/05 10:07:40;;;;;;;16.58;12.68;;;25.70;99.90;;;;;;5093322;27;20046;-77
2023/08/05 10:10:08;;;;;;;17.92;13.13;;;25.80;99.90;;;;;;5082800;27;20112;-78
2023/08/05 10:12:52;;;;;;;17.95;13.57;;;25.70;99.90;;;;;;5079371;27;20059;-77
2023/08/05 10:15:32;;;;;;;17.55;13.82;;;25.60;99.90;;;;;;5085989;27;20096;-77
2023/08/05 10:17:59;;;;;;;20.20;13.35;;;25.60;99.90;;;;;;5088173;27;20046;-78
2023/08/05 10:20:34;;;;;;;19.05;14.15;;;25.70;99.90;;;;;;5086653;27;20046;-77
2023/08/05 10:23:03;;;;;;;17.23;14.07;;;25.80;99.90;;;;;;5077706;27;20112;-78
2023/08/05 10:25:40;;;;;;;20.35;16.08;;;25.90;99.90;;;;;;5086255;28;20122;-78
2023/08/05 10:28:08;;;;;;;15.23;13.43;;;26.00;99.90;;;;;;5065067;27;20048;-78
2023/08/05 10:30:43;;;;;;;18.77;15.13;;;26.10;99.90;;;;;;5080345;27;20138;-77
2023/08/05 10:33:10;;;;;;;15.85;12.63;;;26.10;99.90;;;;;;5106540;27;20043;-78
2023/08/05 10:35:41;;;;;;;16.50;14.35;;;26.10;99.90;;;;;;5079785;27;20043;-77
2023/08/05 10:38:09;;;;;;;15.73;13.30;;;26.20;99.90;;;;;;5077720;27;20071;-78
2023/08/05 10:40:49;;;;;;;18.30;14.70;;;26.50;99.90;;;;;;5080401;27;20043;-78
2023/08/05 10:43:38;;;;;;;21.48;15.55;;;26.80;99.90;;;;;;5067018;27;20051;-78
2023/08/05 10:46:08;;;;;;;16.65;14.43;;;27.00;99.90;;;;;;5089288;27;20054;-78
2023/08/05 10:48:42;;;;;;;18.85;14.23;;;26.90;99.90;;;;;;5084922;27;20058;-78
2023/08/05 10:55:58;;;;;;;;;;;;;;;;;;;;;
2023/08/05 11:07:57;;;;;;;;;;;;;;;;;;;;;
2023/08/05 11:19:06;;;;;;;;;;;;;;;;;;;;;
2023/08/05 11:25:34;;;;;;;20.50;15.48;;;26.30;99.90;;;;;;4841502;29;20377;-78
2023/08/05 11:28:05;;;;;;;17.52;14.13;;;26.30;99.90;;;;;;4932184;28;20113;-78
2023/08/05 11:30:38;;;;;;;18.40;14.45;;;26.40;99.90;;;;;;4932361;28;20077;-78
2023/08/05 11:33:06;;;;;;;16.98;14.07;;;26.50;99.90;;;;;;4943036;28;20409;-78
2023/08/05 11:35:41;;;;;;;19.58;14.35;;;26.40;99.90;;;;;;4922757;28;20067;-78
2023/08/05 11:38:15;;;;;;;18.58;14.77;;;26.60;99.90;;;;;;4931542;28;20073;-78
2023/08/05 11:40:50;;;;;;;16.70;13.48;;;26.60;99.90;;;;;;4935761;28;20054;-77
2023/08/05 11:43:20;;;;;;;15.80;12.60;;;26.70;99.90;;;;;;4920655;28;20076;-78
2023/08/05 11:45:51;;;;;;;16.70;13.10;;;26.70;99.90;;;;;;4975124;28;20090;-78
2023/08/05 11:48:20;;;;;;;15.65;12.63;;;26.70;99.90;;;;;;4934470;28;20125;-78
2023/08/05 11:51:09;;;;;;;17.70;13.52;;;26.80;99.90;;;;;;4951567;28;20054;-78
2023/08/05 11:53:47;;;;;;;19.67;13.75;;;26.90;99.90;;;;;;4982063;28;20042;-78
2023/08/05 11:56:23;;;;;;;15.00;12.10;;;26.80;99.90;;;;;;5014765;28;20075;-78
2023/08/05 11:58:51;;;;;;;15.07;12.07;;;26.80;99.90;;;;;;4973022;28;20053;-80
2023/08/05 12:01:18;;;;;;;12.80;11.18;;;26.80;99.90;;;;;;5012048;28;20604;-82
2023/08/05 12:03:45;;;;;;;15.45;11.85;;;26.80;99.90;;;;;;5026187;28;20049;-82
2023/08/05 12:06:13;;;;;;;13.63;10.98;;;26.70;99.90;;;;;;4997745;28;20843;-81
2023/08/05 12:08:44;;;;;;;13.60;11.57;;;26.70;99.90;;;;;;4998349;28;20071;-81
2023/08/05 12:11:12;;;;;;;13.32;11.48;;;26.70;99.90;;;;;;5000581;28;20092;-82
2023/08/05 12:13:41;;;;;;;14.30;11.70;;;26.70;99.90;;;;;;4963627;28;20054;-79
2023/08/05 12:16:16;;;;;;;15.52;12.35;;;26.70;99.90;;;;;;4983100;28;20144;-79
2023/08/05 12:18:46;;;;;;;15.25;11.90;;;26.70;99.90;;;;;;4982357;28;22841;-78
2023/08/05 12:21:14;;;;;;;15.32;11.95;;;26.80;99.90;;;;;;4978984;28;20045;-79
2023/08/05 12:23:41;;;;;;;13.35;11.43;;;26.90;99.90;;;;;;4953862;28;20105;-79
2023/08/05 12:26:10;;;;;;;13.00;11.13;;;27.00;99.90;;;;;;4984755;28;20045;-79
2023/08/05 12:28:37;;;;;;;13.77;11.60;;;27.10;99.90;;;;;;4982360;28;20051;-82
2023/08/05 12:31:06;;;;;;;12.25;10.65;;;27.10;99.90;;;;;;4972960;28;20054;-80
2023/08/05 12:33:33;;;;;;;13.80;11.27;;;27.00;99.90;;;;;;4968522;28;20057;-79
2023/08/05 12:36:00;;;;;;;14.73;11.77;;;27.10;99.90;;;;;;4975689;28;20144;-79
2023/08/05 12:38:27;;;;;;;12.88;11.50;;;27.00;99.90;;;;;;4974245;28;20823;-80
2023/08/05 12:40:55;;;;;;;13.32;11.57;;;27.10;99.90;;;;;;4955499;28;20046;-79
2023/08/05 12:43:22;;;;;;;14.90;12.00;;;27.20;99.90;;;;;;4973400;28;20184;-80
2023/08/05 12:45:49;;;;;;;14.27;11.48;;;27.20;99.90;;;;;;4977954;28;20221;-81
2023/08/05 12:48:16;;;;;;;12.07;10.63;;;27.30;99.90;;;;;;4964038;28;20058;-80
2023/08/05 12:50:44;;;;;;;12.65;11.25;;;27.10;99.90;;;;;;4982999;28;22311;-80
2023/08/05 12:53:11;;;;;;;13.32;11.93;;;27.10;99.90;;;;;;4983735;28;20050;-80
2023/08/05 12:55:38;;;;;;;13.20;11.15;;;27.10;99.90;;;;;;4968060;28;20046;-80
2023/08/05 12:58:05;;;;;;;16.13;11.18;;;26.90;99.90;;;;;;4982592;28;20493;-80
2023/08/05 13:00:32;;;;;;;14.45;11.48;;;26.90;99.90;;;;;;4954184;28;20046;-81
2023/08/05 13:02:59;;;;;;;13.25;11.38;;;26.90;99.90;;;;;;4978186;28;20133;-80
2023/08/05 13:05:26;;;;;;;15.18;12.27;;;26.80;99.90;;;;;;4975256;28;20812;-80
2023/08/05 13:07:54;;;;;;;13.88;12.38;;;26.80;99.90;;;;;;5000147;28;20050;-80
2023/08/05 13:10:21;;;;;;;16.75;13.02;;;26.80;99.90;;;;;;4983795;28;20100;-80
2023/08/05 13:12:48;;;;;;;15.63;13.35;;;26.70;99.90;;;;;;4957178;28;20065;-79
2023/08/05 13:15:15;;;;;;;15.25;11.75;;;26.70;99.90;;;;;;4968987;28;20057;-80
2023/08/05 13:17:42;;;;;;;15.15;12.25;;;26.60;99.90;;;;;;4975091;28;20065;-80
2023/08/05 13:20:10;;;;;;;16.40;12.68;;;26.50;99.90;;;;;;4984907;28;20703;-80
2023/08/05 13:22:37;;;;;;;15.68;12.52;;;26.50;99.90;;;;;;4973166;28;20445;-80
2023/08/05 13:25:04;;;;;;;14.93;12.38;;;26.50;99.90;;;;;;4955127;28;20193;-80
2023/08/05 13:27:33;;;;;;;18.17;12.93;;;26.50;99.90;;;;;;4964590;28;20523;-80
2023/08/05 13:30:01;;;;;;;15.70;12.48;;;26.60;99.90;;;;;;4961644;28;20058;-80
2023/08/05 13:32:28;;;;;;;13.90;11.60;;;26.70;99.90;;;;;;4978293;28;20081;-80
2023/08/05 13:34:55;;;;;;;15.23;12.73;;;26.60;99.90;;;;;;4972506;28;20065;-80
2023/08/05 13:37:22;;;;;;;17.15;12.95;;;26.50;99.90;;;;;;4972472;28;20046;-80
2023/08/05 13:39:50;;;;;;;14.45;12.10;;;26.40;99.90;;;;;;4961677;28;20045;-80
2023/08/05 13:42:17;;;;;;;15.13;12.85;;;26.30;99.90;;;;;;4965041;28;20466;-80
2023/08/05 13:44:44;;;;;;;19.67;12.70;;;26.30;99.90;;;;;;4958783;28;20541;-80
2023/08/05 13:47:12;;;;;;;15.20;12.60;;;26.20;99.90;;;;;;4970388;28;20046;-82
2023/08/05 13:49:39;;;;;;;17.27;12.68;;;26.10;99.90;;;;;;4983274;28;20369;-80
2023/08/05 13:52:06;;;;;;;15.82;12.93;;;26.10;99.90;;;;;;4955662;28;20062;-80
2023/08/05 13:54:34;;;;;;;15.85;13.48;;;26.00;99.90;;;;;;4955493;28;20065;-80
2023/08/05 13:57:02;;;;;;;18.02;14.48;;;25.90;99.90;;;;;;4964819;28;20049;-80
2023/08/05 13:59:29;;;;;;;18.23;14.68;;;25.90;99.90;;;;;;4972347;28;20081;-80
2023/08/05 14:01:56;;;;;;;18.27;15.00;;;25.90;99.90;;;;;;4974079;28;20050;-80
2023/08/05 14:04:24;;;;;;;16.27;14.18;;;25.90;99.90;;;;;;4949791;28;21000;-80
2023/08/05 14:06:51;;;;;;;16.88;13.88;;;25.90;99.90;;;;;;4967572;28;20227;-79
2023/08/05 14:09:18;;;;;;;20.00;16.15;;;25.90;99.90;;;;;;4975211;28;20064;-80
2023/08/05 14:11:45;;;;;;;20.67;16.65;;;26.00;99.90;;;;;;4966794;28;20053;-80
2023/08/05 14:14:12;;;;;;;21.25;16.70;;;26.00;99.90;;;;;;4982098;28;20086;-80
2023/08/05 14:16:39;;;;;;;22.25;17.05;;;25.90;99.90;;;;;;4966990;28;20058;-80
2023/08/05 14:19:07;;;;;;;19.55;16.00;;;26.00;99.90;;;;;;4962449;28;20043;-80
2023/08/05 14:21:34;;;;;;;18.27;14.57;;;25.90;99.90;;;;;;4984530;28;20053;-79
2023/08/05 14:24:01;;;;;;;18.52;15.90;;;25.90;99.90;;;;;;5003066;28;20413;-80
2023/08/05 14:26:28;;;;;;;18.75;15.13;;;26.00;99.90;;;;;;4994065;28;20100;-80
2023/08/05 14:28:58;;;;;;;24.58;18.25;;;25.90;99.90;;;;;;4956145;28;20127;-80
2023/08/05 14:31:25;;;;;;;21.83;16.73;;;25.90;99.90;;;;;;4941335;28;20049;-80
2023/08/05 14:33:53;;;;;;;18.10;13.52;;;25.90;99.90;;;;;;4984492;28;20105;-79
2023/08/05 14:36:21;;;;;;;14.30;12.52;;;25.90;99.90;;;;;;4973570;28;20053;-80
2023/08/05 14:38:49;;;;;;;18.40;13.10;;;25.90;99.90;;;;;;4973384;28;20204;-79
2023/08/05 14:41:16;;;;;;;16.30;13.52;;;26.00;99.90;;;;;;4966091;28;20501;-80
2023/08/05 14:43:46;;;;;;;15.48;12.55;;;26.00;99.90;;;;;;4950436;28;20050;-80
2023/08/05 14:46:15;;;;;;;16.25;12.32;;;26.00;99.90;;;;;;4971364;28;20108;-79
2023/08/05 14:48:42;;;;;;;18.33;13.57;;;26.00;99.90;;;;;;5003842;28;20074;-79
2023/08/05 14:51:09;;;;;;;15.13;11.50;;;26.00;99.90;;;;;;4970109;28;20046;-79
2023/08/05 14:53:36;;;;;;;13.93;11.82;;;26.00;99.90;;;;;;4976322;28;20043;-80
2023/08/05 14:56:03;;;;;;;12.93;10.45;;;26.00;99.90;;;;;;4999833;28;20117;-80
2023/08/05 14:58:30;;;;;;;12.07;10.18;;;26.10;99.90;;;;;;4954624;28;20045;-79
2023/08/05 15:01:18;;;;;;;16.52;11.82;;;26.10;99.90;;;;;;4996494;28;20407;-79
2023/08/05 15:03:47;;;;;;;12.65;10.55;;;26.00;99.90;;;;;;4986525;28;20655;-79
2023/08/05 15:06:16;;;;;;;12.10;10.00;;;26.00;99.90;;;;;;4966520;28;20417;-79
2023/08/05 15:08:44;;;;;;;13.57;10.02;;;26.00;99.90;;;;;;4954769;28;20084;-80
2023/08/05 15:11:35;;;;;;;11.27;8.93;;;26.00;99.90;;;;;;4972244;28;20531;-79
2023/08/05 15:15:39;;;;;;;11.93;9.02;;;25.90;99.90;;;;;;4949697;28;20098;-77
2023/08/05 15:18:59;;;;;;;11.77;8.30;;;25.70;99.90;;;;;;4895457;28;20058;-80
2023/08/05 15:22:44;;;;;;;;;;;;;;;;;;;;;
2023/08/05 15:25:31;;;;;;;;;;;;;;;;;;;;;
2023/08/05 15:28:17;;;;;;;9.90;8.63;;;25.40;99.90;;;;;;4926221;28;20062;-81
2023/08/05 15:30:46;;;;;;;12.10;9.52;;;25.30;99.90;;;;;;4939906;28;20050;-79
2023/08/05 15:33:14;;;;;;;12.30;8.75;;;25.30;99.90;;;;;;4950220;28;20057;-78
2023/08/05 15:35:44;;;;;;;11.68;8.60;;;25.30;99.90;;;;;;4947788;28;20054;-80
2023/08/05 15:38:12;;;;;;;11.60;8.57;;;25.30;99.90;;;;;;4943410;28;20489;-79
2023/08/05 15:40:39;;;;;;;12.95;9.90;;;25.30;99.90;;;;;;4954296;28;20070;-80
2023/08/05 15:43:06;;;;;;;12.48;9.38;;;25.20;99.90;;;;;;4941433;28;20051;-80
2023/08/05 15:45:34;;;;;;;12.55;10.20;;;25.20;99.90;;;;;;4943279;28;20078;-79
2023/08/05 15:48:01;;;;;;;12.90;9.02;;;25.10;99.90;;;;;;4942391;28;20050;-81
2023/08/05 15:50:28;;;;;;;15.02;10.38;;;25.00;99.90;;;;;;4962891;28;20057;-81
2023/08/05 15:52:57;;;;;;;13.50;9.75;;;24.90;99.90;;;;;;4948325;28;20050;-81
2023/08/05 15:55:27;;;;;;;12.32;9.85;;;24.90;99.90;;;;;;4962629;28;20405;-81
2023/08/05 15:58:01;;;;;;;12.95;10.07;;;24.70;99.90;;;;;;4965888;28;20051;-81
2023/08/05 16:00:39;;;;;;;11.77;9.10;;;24.70;99.90;;;;;;4958776;28;21161;-80
2023/08/05 16:03:08;;;;;;;12.52;9.48;;;24.60;99.90;;;;;;4968141;28;20043;-80
2023/08/05 16:05:46;;;;;;;11.45;9.27;;;24.50;99.90;;;;;;4932174;29;20048;-80
2023/08/05 16:08:16;;;;;;;14.65;10.45;;;24.50;99.90;;;;;;4948693;28;20071;-78
2023/08/05 16:10:58;;;;;;;14.57;10.52;;;24.40;99.90;;;;;;4902499;29;20062;-79
2023/08/05 16:13:32;;;;;;;13.18;9.80;;;24.30;99.90;;;;;;4921481;29;20055;-79
2023/08/05 16:16:17;;;;;;;12.68;9.20;;;24.10;99.90;;;;;;4947179;29;20141;-80
2023/08/05 16:18:45;;;;;;;14.30;10.52;;;24.10;99.90;;;;;;4947689;29;20095;-79
2023/08/05 16:21:16;;;;;;;12.98;9.82;;;23.90;99.90;;;;;;4933233;29;20138;-79
2023/08/05 16:23:44;;;;;;;14.85;10.57;;;23.90;99.90;;;;;;4914062;28;20195;-79
2023/08/05 16:26:17;;;;;;;14.95;11.35;;;24.00;99.90;;;;;;4915257;29;20061;-79
2023/08/05 16:28:48;;;;;;;14.98;11.30;;;24.00;99.90;;;;;;4923643;29;20189;-78
2023/08/05 16:31:17;;;;;;;17.33;12.02;;;24.00;99.90;;;;;;4892910;29;20136;-78
2023/08/05 16:33:46;;;;;;;14.88;10.60;;;24.10;99.90;;;;;;4899532;29;20063;-78
2023/08/05 16:36:13;;;;;;;18.15;12.77;;;24.10;99.90;;;;;;4928555;29;20294;-78
2023/08/05 16:38:44;;;;;;;18.58;12.57;;;24.00;99.90;;;;;;4914471;29;20111;-78
2023/08/05 16:41:12;;;;;;;19.13;12.43;;;23.90;99.90;;;;;;4914970;29;20043;-79
2023/08/05 16:43:40;;;;;;;25.23;16.42;;;23.90;99.90;;;;;;4899526;29;20039;-79
2023/08/05 16:46:08;;;;;;;30.45;23.10;;;23.90;99.90;;;;;;4901925;29;20544;-79
2023/08/05 16:48:37;;;;;;;29.60;22.75;;;23.90;99.90;;;;;;4924519;28;20086;-79
2023/08/05 16:51:05;;;;;;;24.45;15.27;;;23.90;99.90;;;;;;4924310;29;20134;-80
2023/08/05 16:53:32;;;;;;;21.33;14.32;;;23.80;99.90;;;;;;4945524;28;20597;-81
2023/08/05 16:56:01;;;;;;;24.35;18.75;;;23.70;99.90;;;;;;4941931;28;20087;-81
2023/08/05 16:58:29;;;;;;;22.33;16.00;;;23.60;99.90;;;;;;4935332;29;22330;-80
2023/08/05 17:00:57;;;;;;;21.35;14.27;;;23.60;99.90;;;;;;4928830;28;20488;-80
2023/08/05 17:04:04;;;;;;;19.73;13.85;;;23.60;99.90;;;;;;4929465;28;20074;-80
2023/08/05 17:08:42;;;;;;;20.63;18.40;;;23.50;99.90;;;;;;4947268;28;20121;-79
2023/08/05 17:20:58;;;;;;;27.27;17.48;;;23.50;99.90;;;;;;4745622;30;20082;-80
2023/08/05 17:23:25;;;;;;;42.83;28.38;;;23.40;99.90;;;;;;4799879;29;20994;-79
2023/08/05 17:25:53;;;;;;;50.97;34.95;;;23.50;99.90;;;;;;4893457;28;20060;-80
2023/08/05 17:28:20;;;;;;;35.17;23.90;;;23.40;99.90;;;;;;4967641;28;20163;-80
2023/08/05 17:30:48;;;;;;;36.35;25.02;;;23.30;99.90;;;;;;4953122;28;20099;-79
2023/08/05 17:33:17;;;;;;;37.15;26.15;;;23.20;99.90;;;;;;4949000;28;20538;-80
2023/08/05 17:39:21;;;;;;;30.60;20.55;;;23.20;99.90;;;;;;4945226;28;20065;-80
2023/08/05 17:41:48;;;;;;;32.20;21.48;;;23.20;99.90;;;;;;4963244;28;20047;-80
2023/08/05 17:44:16;;;;;;;32.35;20.27;;;23.20;99.90;;;;;;4965476;28;20050;-79
2023/08/05 17:46:46;;;;;;;30.48;21.08;;;23.00;99.90;;;;;;4969514;28;20050;-79
2023/08/05 17:49:14;;;;;;;30.60;19.55;;;22.90;99.90;;;;;;4966827;28;20051;-80
2023/08/05 17:51:43;;;;;;;31.65;20.95;;;23.00;99.90;;;;;;4952569;28;20054;-80
2023/08/05 17:54:11;;;;;;;30.27;20.05;;;23.00;99.90;;;;;;4968295;28;20530;-80
2023/08/05 17:56:39;;;;;;;30.73;19.98;;;23.10;99.90;;;;;;4989317;28;20431;-81
2023/08/05 17:59:07;;;;;;;29.02;19.98;;;23.10;99.90;;;;;;4988404;28;20054;-79
2023/08/05 18:01:36;;;;;;;30.65;20.48;;;23.00;99.90;;;;;;4989819;28;20042;-80
2023/08/05 18:04:05;;;;;;;31.25;20.52;;;23.00;99.90;;;;;;4983052;28;20050;-79
2023/08/05 18:06:32;;;;;;;31.15;21.02;;;23.00;99.90;;;;;;4988353;28;20038;-78
2023/08/05 18:09:00;;;;;;;33.17;21.50;;;23.00;99.90;;;;;;5003537;28;20050;-78
2023/08/05 18:11:28;;;;;;;36.50;22.60;;;23.00;99.90;;;;;;4991060;28;20523;-77
2023/08/05 18:13:57;;;;;;;34.95;21.52;;;22.90;99.90;;;;;;5007035;28;20061;-78
2023/08/05 18:16:24;;;;;;;33.63;22.98;;;22.90;99.90;;;;;;5005317;28;20556;-77
2023/08/05 18:18:52;;;;;;;39.88;24.85;;;22.90;99.90;;;;;;5008314;28;20065;-77
2023/08/05 18:21:20;;;;;;;35.17;22.77;;;22.90;99.90;;;;;;4966014;28;20046;-77
2023/08/05 18:23:49;;;;;;;37.88;23.27;;;22.90;99.90;;;;;;4993173;28;20120;-77
2023/08/05 18:26:20;;;;;;;39.63;24.90;;;22.90;99.90;;;;;;4990391;28;20108;-77
2023/08/05 18:28:48;;;;;;;42.75;25.55;;;22.90;99.90;;;;;;4996146;28;20064;-78
2023/08/05 18:31:17;;;;;;;42.55;25.77;;;22.90;99.90;;;;;;5006594;28;21078;-77
2023/08/05 18:33:45;;;;;;;40.45;24.98;;;22.80;99.90;;;;;;4984530;28;20065;-78
2023/08/05 18:36:13;;;;;;;40.40;26.23;;;22.80;99.90;;;;;;5006109;28;20053;-75
2023/08/05 18:38:40;;;;;;;41.55;24.23;;;22.90;99.90;;;;;;4992003;28;20108;-76
2023/08/05 18:41:08;;;;;;;43.50;28.13;;;22.80;99.90;;;;;;4967595;28;20053;-76
2023/08/05 18:43:36;;;;;;;39.92;24.77;;;22.70;99.90;;;;;;4989287;28;20117;-75
2023/08/05 18:46:03;;;;;;;41.88;24.50;;;22.70;99.90;;;;;;5004200;28;20452;-77
2023/08/05 18:48:31;;;;;;;39.53;25.20;;;22.70;99.90;;;;;;5004355;28;20045;-78
2023/08/05 18:50:59;;;;;;;40.35;25.83;;;22.70;99.90;;;;;;4991413;28;21472;-76
2023/08/05 18:53:26;;;;;;;41.60;25.40;;;22.70;99.90;;;;;;4979440;28;20132;-76
2023/08/05 18:55:53;;;;;;;38.08;23.52;;;22.70;99.90;;;;;;4989651;28;20046;-77
2023/08/05 18:58:21;;;;;;;40.75;25.90;;;22.70;99.90;;;;;;4993583;28;20060;-77
2023/08/05 19:00:50;;;;;;;44.28;25.75;;;22.70;99.90;;;;;;4974544;28;20046;-76
2023/08/05 19:03:18;;;;;;;44.58;27.88;;;22.70;99.90;;;;;;4985851;28;20038;-77
2023/08/05 19:05:57;;;;;;;44.15;26.45;;;22.70;99.90;;;;;;4978851;28;21582;-77
2023/08/05 19:08:26;;;;;;;37.40;24.38;;;22.70;99.90;;;;;;4972300;28;20051;-77
2023/08/05 19:10:54;;;;;;;39.08;24.40;;;22.70;99.90;;;;;;4985550;28;22729;-78
2023/08/05 19:13:22;;;;;;;40.33;25.52;;;22.70;99.90;;;;;;4953480;28;20499;-78
2023/08/05 19:16:00;;;;;;;42.45;25.48;;;22.80;99.90;;;;;;4967489;28;20731;-77
2023/08/05 19:18:34;;;;;;;45.03;28.38;;;22.80;99.90;;;;;;4942512;28;20531;-78
2023/08/05 19:21:08;;;;;;;45.20;26.75;;;22.80;99.90;;;;;;4954663;28;20504;-78
2023/08/05 19:23:36;;;;;;;41.03;25.10;;;22.70;99.90;;;;;;4933182;28;20057;-77
2023/08/05 19:26:06;;;;;;;43.40;26.55;;;22.80;99.90;;;;;;4970938;28;20043;-77
2023/08/05 19:28:34;;;;;;;44.97;28.08;;;22.70;99.90;;;;;;4940975;28;23275;-77
2023/08/05 19:31:07;;;;;;;42.65;26.65;;;22.80;99.90;;;;;;4959034;28;20185;-77
2023/08/05 19:33:37;;;;;;;39.85;24.88;;;22.70;99.90;;;;;;4944379;28;20066;-77
2023/08/05 19:36:14;;;;;;;44.35;26.65;;;22.70;99.90;;;;;;4980135;28;20050;-78
2023/08/05 19:38:42;;;;;;;47.92;27.70;;;22.70;99.90;;;;;;4966531;28;20508;-78
2023/08/05 19:41:11;;;;;;;46.28;27.90;;;22.70;99.90;;;;;;4969140;28;20066;-78
2023/08/05 19:43:39;;;;;;;45.60;28.98;;;22.70;99.90;;;;;;4999694;28;20042;-78
2023/08/05 19:46:13;;;;;;;47.50;27.60;;;22.70;99.90;;;;;;5016458;28;20137;-77
2023/08/05 19:48:43;;;;;;;46.55;27.85;;;22.70;99.90;;;;;;4974558;28;20599;-78
2023/08/05 19:51:11;;;;;;;43.35;26.58;;;22.70;99.90;;;;;;4991513;28;20046;-78
2023/08/05 19:53:43;;;;;;;45.88;27.98;;;22.70;99.90;;;;;;4962721;28;20061;-78
2023/08/05 19:56:10;;;;;;;44.72;26.92;;;22.70;99.90;;;;;;4991704;28;20046;-79
2023/08/05 19:58:37;;;;;;;47.47;27.10;;;22.60;99.90;;;;;;4999433;28;21026;-79
2023/08/05 20:01:05;;;;;;;42.75;25.23;;;22.60;99.90;;;;;;4976134;28;20566;-79
2023/08/05 20:03:34;;;;;;;38.78;24.05;;;22.60;99.90;;;;;;4983029;28;20042;-79
2023/08/05 20:06:03;;;;;;;39.42;23.70;;;22.50;99.90;;;;;;4982888;28;20046;-79
2023/08/05 20:08:32;;;;;;;40.58;23.30;;;22.50;99.90;;;;;;4980655;28;20069;-79
2023/08/05 20:10:59;;;;;;;39.28;22.02;;;22.50;99.90;;;;;;4977806;28;20056;-78
2023/08/05 20:13:27;;;;;;;33.03;21.50;;;22.50;99.90;;;;;;4973895;28;20053;-78
2023/08/05 20:15:58;;;;;;;34.85;20.75;;;22.40;99.90;;;;;;5006412;28;20058;-79
2023/08/05 20:18:27;;;;;;;34.13;19.63;;;22.40;99.90;;;;;;4984252;28;20057;-79